Home

PKWA Terminal Aerodrome Forecast (TAF)small logo


TAF provided by NWS Guam
2016/02/12 12:39
TAF PKWA 121131Z 1212/1312 06014KT P6SM SCT020 SCT050

      



Site Map | Contact Us | Copyright © 2007 Atmospheric Technology Services Company. All rights reserved.